sensor_id;sensor_type;location;lat;lon;timestamp;P1;durP1;ratioP1;P2;durP2;ratioP2
64094;SDS011;50353;51.420;5.682;2023-03-14T00:01:46;8.18;;;2.10;;
64094;SDS011;50353;51.420;5.682;2023-03-14T00:04:11;13.43;;;2.63;;
64094;SDS011;50353;51.420;5.682;2023-03-14T00:06:36;8.15;;;2.30;;
64094;SDS011;50353;51.420;5.682;2023-03-14T00:09:02;7.28;;;1.88;;
64094;SDS011;50353;51.420;5.682;2023-03-14T00:11:27;9.70;;;2.40;;
64094;SDS011;50353;51.420;5.682;2023-03-14T00:13:53;7.63;;;2.13;;
64094;SDS011;50353;51.420;5.682;2023-03-14T00:16:18;7.20;;;2.20;;
64094;SDS011;50353;51.420;5.682;2023-03-14T00:18:44;6.90;;;1.83;;
64094;SDS011;50353;51.420;5.682;2023-03-14T00:21:10;9.60;;;2.00;;
64094;SDS011;50353;51.420;5.682;2023-03-14T00:23:36;7.13;;;1.80;;
64094;SDS011;50353;51.420;5.682;2023-03-14T00:26:13;5.60;;;1.70;;
64094;SDS011;50353;51.420;5.682;2023-03-14T00:28:40;10.77;;;2.38;;
64094;SDS011;50353;51.420;5.682;2023-03-14T00:31:07;6.30;;;2.20;;
64094;SDS011;50353;51.420;5.682;2023-03-14T00:33:34;8.40;;;2.05;;
64094;SDS011;50353;51.420;5.682;2023-03-14T00:36:01;7.85;;;2.63;;
64094;SDS011;50353;51.420;5.682;2023-03-14T00:38:29;9.57;;;2.10;;
64094;SDS011;50353;51.420;5.682;2023-03-14T00:40:56;7.97;;;1.88;;
64094;SDS011;50353;51.420;5.682;2023-03-14T00:43:21;7.97;;;1.85;;
64094;SDS011;50353;51.420;5.682;2023-03-14T00:45:47;6.65;;;2.00;;
64094;SDS011;50353;51.420;5.682;2023-03-14T00:48:17;5.78;;;1.52;;
64094;SDS011;50353;51.420;5.682;2023-03-14T00:50:43;10.98;;;1.77;;
64094;SDS011;50353;51.420;5.682;2023-03-14T00:53:08;2.53;;;1.30;;
64094;SDS011;50353;51.420;5.682;2023-03-14T00:55:40;6.13;;;1.45;;
64094;SDS011;50353;51.420;5.682;2023-03-14T00:58:10;4.50;;;1.52;;
64094;SDS011;50353;51.420;5.682;2023-03-14T01:00:38;6.80;;;2.05;;
64094;SDS011;50353;51.420;5.682;2023-03-14T01:03:03;10.60;;;1.98;;
64094;SDS011;50353;51.420;5.682;2023-03-14T01:05:29;6.57;;;1.83;;
64094;SDS011;50353;51.420;5.682;2023-03-14T01:07:55;5.47;;;1.77;;
64094;SDS011;50353;51.420;5.682;2023-03-14T01:10:20;8.02;;;1.88;;
64094;SDS011;50353;51.420;5.682;2023-03-14T01:12:45;5.70;;;1.55;;
64094;SDS011;50353;51.420;5.682;2023-03-14T01:15:11;7.38;;;1.67;;
64094;SDS011;50353;51.420;5.682;2023-03-14T01:17:36;5.18;;;1.77;;
64094;SDS011;50353;51.420;5.682;2023-03-14T01:20:03;10.27;;;1.67;;
64094;SDS011;50353;51.420;5.682;2023-03-14T01:22:29;5.38;;;1.80;;
64094;SDS011;50353;51.420;5.682;2023-03-14T01:24:55;7.13;;;1.88;;
64094;SDS011;50353;51.420;5.682;2023-03-14T01:27:20;4.95;;;1.45;;
64094;SDS011;50353;51.420;5.682;2023-03-14T01:29:45;6.00;;;2.10;;
64094;SDS011;50353;51.420;5.682;2023-03-14T01:32:12;8.57;;;1.90;;
64094;SDS011;50353;51.420;5.682;2023-03-14T01:34:37;4.88;;;1.58;;
64094;SDS011;50353;51.420;5.682;2023-03-14T01:37:02;8.35;;;2.55;;
64094;SDS011;50353;51.420;5.682;2023-03-14T01:39:28;5.28;;;1.48;;
64094;SDS011;50353;51.420;5.682;2023-03-14T01:41:53;10.30;;;2.10;;
64094;SDS011;50353;51.420;5.682;2023-03-14T01:44:18;4.95;;;1.60;;
64094;SDS011;50353;51.420;5.682;2023-03-14T01:46:44;9.48;;;1.98;;
64094;SDS011;50353;51.420;5.682;2023-03-14T01:49:31;9.85;;;2.28;;
64094;SDS011;50353;51.420;5.682;2023-03-14T01:54:33;9.13;;;2.13;;
64094;SDS011;50353;51.420;5.682;2023-03-14T01:57:10;8.55;;;2.28;;
64094;SDS011;50353;51.420;5.682;2023-03-14T01:59:39;7.55;;;1.60;;
64094;SDS011;50353;51.420;5.682;2023-03-14T02:02:07;7.75;;;1.75;;
64094;SDS011;50353;51.420;5.682;2023-03-14T02:04:35;5.18;;;1.58;;
64094;SDS011;50353;51.420;5.682;2023-03-14T02:09:38;11.70;;;2.38;;
64094;SDS011;50353;51.420;5.682;2023-03-14T02:12:05;7.15;;;2.00;;
64094;SDS011;50353;51.420;5.682;2023-03-14T02:14:33;7.28;;;2.00;;
64094;SDS011;50353;51.420;5.682;2023-03-14T02:17:00;8.70;;;2.38;;
64094;SDS011;50353;51.420;5.682;2023-03-14T02:19:34;10.05;;;2.28;;
64094;SDS011;50353;51.420;5.682;2023-03-14T02:22:12;7.97;;;2.08;;
64094;SDS011;50353;51.420;5.682;2023-03-14T02:27:25;8.00;;;2.95;;
64094;SDS011;50353;51.420;5.682;2023-03-14T02:29:52;6.88;;;2.00;;
64094;SDS011;50353;51.420;5.682;2023-03-14T02:32:22;9.52;;;1.83;;
64094;SDS011;50353;51.420;5.682;2023-03-14T02:34:51;9.30;;;2.28;;
64094;SDS011;50353;51.420;5.682;2023-03-14T02:37:19;12.38;;;2.40;;
64094;SDS011;50353;51.420;5.682;2023-03-14T02:39:48;6.82;;;1.85;;
64094;SDS011;50353;51.420;5.682;2023-03-14T02:42:14;14.07;;;3.67;;
64094;SDS011;50353;51.420;5.682;2023-03-14T02:44:53;10.10;;;2.35;;
64094;SDS011;50353;51.420;5.682;2023-03-14T02:47:27;6.72;;;1.88;;
64094;SDS011;50353;51.420;5.682;2023-03-14T02:49:56;13.27;;;2.50;;
64094;SDS011;50353;51.420;5.682;2023-03-14T02:52:49;7.53;;;2.13;;
64094;SDS011;50353;51.420;5.682;2023-03-14T02:55:14;12.65;;;2.33;;
64094;SDS011;50353;51.420;5.682;2023-03-14T02:57:39;7.95;;;2.28;;
64094;SDS011;50353;51.420;5.682;2023-03-14T03:00:05;8.70;;;2.20;;
64094;SDS011;50353;51.420;5.682;2023-03-14T03:02:31;10.02;;;2.30;;
64094;SDS011;50353;51.420;5.682;2023-03-14T03:04:56;7.95;;;1.98;;
64094;SDS011;50353;51.420;5.682;2023-03-14T03:07:22;14.38;;;2.58;;
64094;SDS011;50353;51.420;5.682;2023-03-14T03:09:48;8.82;;;2.00;;
64094;SDS011;50353;51.420;5.682;2023-03-14T03:12:13;8.73;;;2.28;;
64094;SDS011;50353;51.420;5.682;2023-03-14T03:14:39;11.65;;;2.40;;
64094;SDS011;50353;51.420;5.682;2023-03-14T03:17:04;10.30;;;2.03;;
64094;SDS011;50353;51.420;5.682;2023-03-14T03:19:30;15.43;;;2.85;;
64094;SDS011;50353;51.420;5.682;2023-03-14T03:21:56;9.90;;;2.40;;
64094;SDS011;50353;51.420;5.682;2023-03-14T03:24:22;10.45;;;2.22;;
64094;SDS011;50353;51.420;5.682;2023-03-14T03:26:47;9.88;;;2.67;;
64094;SDS011;50353;51.420;5.682;2023-03-14T03:29:13;10.85;;;2.28;;
64094;SDS011;50353;51.420;5.682;2023-03-14T03:31:38;9.43;;;2.00;;
64094;SDS011;50353;51.420;5.682;2023-03-14T03:34:04;8.48;;;2.33;;
64094;SDS011;50353;51.420;5.682;2023-03-14T03:36:29;9.40;;;2.47;;
64094;SDS011;50353;51.420;5.682;2023-03-14T03:38:55;7.43;;;1.85;;
64094;SDS011;50353;51.420;5.682;2023-03-14T03:41:20;11.15;;;2.33;;
64094;SDS011;50353;51.420;5.682;2023-03-14T03:43:45;8.32;;;1.90;;
64094;SDS011;50353;51.420;5.682;2023-03-14T03:46:10;10.05;;;2.83;;
64094;SDS011;50353;51.420;5.682;2023-03-14T03:48:36;8.23;;;2.20;;
64094;SDS011;50353;51.420;5.682;2023-03-14T03:51:01;8.70;;;2.08;;
64094;SDS011;50353;51.420;5.682;2023-03-14T03:53:27;9.73;;;2.05;;
64094;SDS011;50353;51.420;5.682;2023-03-14T03:55:52;13.48;;;2.35;;
64094;SDS011;50353;51.420;5.682;2023-03-14T03:58:17;7.90;;;1.92;;
64094;SDS011;50353;51.420;5.682;2023-03-14T04:00:43;7.78;;;1.67;;
64094;SDS011;50353;51.420;5.682;2023-03-14T04:03:09;10.13;;;2.05;;
64094;SDS011;50353;51.420;5.682;2023-03-14T04:05:34;6.78;;;2.00;;
64094;SDS011;50353;51.420;5.682;2023-03-14T04:08:00;4.93;;;1.15;;
64094;SDS011;50353;51.420;5.682;2023-03-14T04:10:26;5.90;;;1.50;;
64094;SDS011;50353;51.420;5.682;2023-03-14T04:12:51;5.65;;;1.27;;
64094;SDS011;50353;51.420;5.682;2023-03-14T04:15:17;7.97;;;1.80;;
64094;SDS011;50353;51.420;5.682;2023-03-14T04:17:42;7.00;;;1.45;;
64094;SDS011;50353;51.420;5.682;2023-03-14T04:20:08;5.28;;;1.40;;
64094;SDS011;50353;51.420;5.682;2023-03-14T04:22:37;3.33;;;1.13;;
64094;SDS011;50353;51.420;5.682;2023-03-14T04:25:03;4.60;;;1.50;;
64094;SDS011;50353;51.420;5.682;2023-03-14T04:27:29;4.10;;;1.27;;
64094;SDS011;50353;51.420;5.682;2023-03-14T04:29:55;3.25;;;0.82;;
64094;SDS011;50353;51.420;5.682;2023-03-14T04:32:20;5.97;;;1.25;;
64094;SDS011;50353;51.420;5.682;2023-03-14T04:34:45;3.65;;;1.00;;
64094;SDS011;50353;51.420;5.682;2023-03-14T04:37:11;6.28;;;1.35;;
64094;SDS011;50353;51.420;5.682;2023-03-14T04:39:36;5.45;;;1.30;;
64094;SDS011;50353;51.420;5.682;2023-03-14T04:42:02;3.47;;;1.23;;
64094;SDS011;50353;51.420;5.682;2023-03-14T04:44:27;2.88;;;1.20;;
64094;SDS011;50353;51.420;5.682;2023-03-14T04:46:52;3.67;;;1.17;;
64094;SDS011;50353;51.420;5.682;2023-03-14T04:49:18;6.07;;;1.60;;
64094;SDS011;50353;51.420;5.682;2023-03-14T04:51:43;3.88;;;1.17;;
64094;SDS011;50353;51.420;5.682;2023-03-14T04:54:09;4.47;;;1.65;;
64094;SDS011;50353;51.420;5.682;2023-03-14T04:56:34;6.55;;;1.75;;
64094;SDS011;50353;51.420;5.682;2023-03-14T04:58:59;4.57;;;1.50;;
64094;SDS011;50353;51.420;5.682;2023-03-14T05:01:25;4.43;;;1.70;;
64094;SDS011;50353;51.420;5.682;2023-03-14T05:03:50;4.05;;;1.58;;
64094;SDS011;50353;51.420;5.682;2023-03-14T05:06:15;5.28;;;1.73;;
64094;SDS011;50353;51.420;5.682;2023-03-14T05:08:41;4.68;;;1.60;;
64094;SDS011;50353;51.420;5.682;2023-03-14T05:11:09;4.25;;;1.73;;
64094;SDS011;50353;51.420;5.682;2023-03-14T05:13:35;3.67;;;1.40;;
64094;SDS011;50353;51.420;5.682;2023-03-14T05:16:06;4.85;;;1.48;;
64094;SDS011;50353;51.420;5.682;2023-03-14T05:18:33;3.92;;;1.65;;
64094;SDS011;50353;51.420;5.682;2023-03-14T05:20:59;7.00;;;1.88;;
64094;SDS011;50353;51.420;5.682;2023-03-14T05:23:24;4.13;;;1.80;;
64094;SDS011;50353;51.420;5.682;2023-03-14T05:25:49;5.95;;;1.83;;
64094;SDS011;50353;51.420;5.682;2023-03-14T05:28:15;5.45;;;1.90;;
64094;SDS011;50353;51.420;5.682;2023-03-14T05:30:40;6.32;;;1.90;;
64094;SDS011;50353;51.420;5.682;2023-03-14T05:33:05;6.53;;;2.28;;
64094;SDS011;50353;51.420;5.682;2023-03-14T05:35:31;7.95;;;2.47;;
64094;SDS011;50353;51.420;5.682;2023-03-14T05:37:56;7.20;;;2.10;;
64094;SDS011;50353;51.420;5.682;2023-03-14T05:40:21;7.03;;;2.10;;
64094;SDS011;50353;51.420;5.682;2023-03-14T05:42:47;5.40;;;2.10;;
64094;SDS011;50353;51.420;5.682;2023-03-14T05:45:12;7.40;;;2.08;;
64094;SDS011;50353;51.420;5.682;2023-03-14T05:47:37;6.45;;;2.03;;
64094;SDS011;50353;51.420;5.682;2023-03-14T05:50:03;5.05;;;2.00;;
64094;SDS011;50353;51.420;5.682;2023-03-14T05:52:28;6.10;;;2.30;;
64094;SDS011;50353;51.420;5.682;2023-03-14T05:54:54;7.75;;;2.15;;
64094;SDS011;50353;51.420;5.682;2023-03-14T05:57:19;6.40;;;2.10;;
64094;SDS011;50353;51.420;5.682;2023-03-14T05:59:44;6.05;;;2.17;;
64094;SDS011;50353;51.420;5.682;2023-03-14T06:02:09;6.38;;;2.22;;
64094;SDS011;50353;51.420;5.682;2023-03-14T06:04:35;6.70;;;2.58;;
64094;SDS011;50353;51.420;5.682;2023-03-14T06:07:00;5.38;;;2.28;;
64094;SDS011;50353;51.420;5.682;2023-03-14T06:09:25;7.28;;;2.20;;
64094;SDS011;50353;51.420;5.682;2023-03-14T06:11:51;6.50;;;2.40;;
64094;SDS011;50353;51.420;5.682;2023-03-14T06:14:16;8.68;;;2.50;;
64094;SDS011;50353;51.420;5.682;2023-03-14T06:16:42;7.15;;;2.58;;
64094;SDS011;50353;51.420;5.682;2023-03-14T06:19:07;9.82;;;2.30;;
64094;SDS011;50353;51.420;5.682;2023-03-14T06:21:33;6.28;;;2.20;;
64094;SDS011;50353;51.420;5.682;2023-03-14T06:23:58;5.35;;;2.10;;
64094;SDS011;50353;51.420;5.682;2023-03-14T06:26:23;8.02;;;3.13;;
64094;SDS011;50353;51.420;5.682;2023-03-14T06:28:49;7.85;;;2.05;;
64094;SDS011;50353;51.420;5.682;2023-03-14T06:31:15;5.60;;;2.60;;
64094;SDS011;50353;51.420;5.682;2023-03-14T06:33:41;6.30;;;2.40;;
64094;SDS011;50353;51.420;5.682;2023-03-14T06:36:06;5.70;;;2.40;;
64094;SDS011;50353;51.420;5.682;2023-03-14T06:38:32;5.60;;;2.10;;
64094;SDS011;50353;51.420;5.682;2023-03-14T06:41:02;5.22;;;2.28;;
64094;SDS011;50353;51.420;5.682;2023-03-14T06:43:31;4.05;;;2.05;;
64094;SDS011;50353;51.420;5.682;2023-03-14T06:45:56;5.72;;;2.00;;
64094;SDS011;50353;51.420;5.682;2023-03-14T06:48:21;3.53;;;2.05;;
64094;SDS011;50353;51.420;5.682;2023-03-14T06:50:47;5.00;;;2.25;;
64094;SDS011;50353;51.420;5.682;2023-03-14T06:53:13;5.57;;;2.10;;
64094;SDS011;50353;51.420;5.682;2023-03-14T06:55:39;5.82;;;2.60;;
64094;SDS011;50353;51.420;5.682;2023-03-14T06:58:04;7.07;;;2.90;;
64094;SDS011;50353;51.420;5.682;2023-03-14T07:00:31;6.22;;;2.38;;
64094;SDS011;50353;51.420;5.682;2023-03-14T07:02:57;5.28;;;2.60;;
64094;SDS011;50353;51.420;5.682;2023-03-14T07:05:22;6.57;;;2.58;;
64094;SDS011;50353;51.420;5.682;2023-03-14T07:07:47;3.78;;;2.08;;
64094;SDS011;50353;51.420;5.682;2023-03-14T07:10:12;3.45;;;1.90;;
64094;SDS011;50353;51.420;5.682;2023-03-14T07:12:38;5.97;;;2.60;;
64094;SDS011;50353;51.420;5.682;2023-03-14T07:15:03;5.57;;;2.47;;
64094;SDS011;50353;51.420;5.682;2023-03-14T07:17:29;5.43;;;2.40;;
64094;SDS011;50353;51.420;5.682;2023-03-14T07:19:54;4.32;;;2.30;;
64094;SDS011;50353;51.420;5.682;2023-03-14T07:22:19;5.25;;;2.50;;
64094;SDS011;50353;51.420;5.682;2023-03-14T07:24:45;6.55;;;2.33;;
64094;SDS011;50353;51.420;5.682;2023-03-14T07:27:10;5.47;;;2.40;;
64094;SDS011;50353;51.420;5.682;2023-03-14T07:29:35;28.75;;;14.27;;
64094;SDS011;50353;51.420;5.682;2023-03-14T07:32:00;5.13;;;2.50;;
64094;SDS011;50353;51.420;5.682;2023-03-14T07:34:26;6.13;;;2.55;;
64094;SDS011;50353;51.420;5.682;2023-03-14T07:36:51;4.65;;;2.65;;
64094;SDS011;50353;51.420;5.682;2023-03-14T07:39:16;6.13;;;2.70;;
64094;SDS011;50353;51.420;5.682;2023-03-14T07:41:41;8.80;;;4.47;;
64094;SDS011;50353;51.420;5.682;2023-03-14T07:44:08;3.47;;;2.22;;
64094;SDS011;50353;51.420;5.682;2023-03-14T07:46:33;5.13;;;2.35;;
64094;SDS011;50353;51.420;5.682;2023-03-14T07:48:59;6.30;;;2.30;;
64094;SDS011;50353;51.420;5.682;2023-03-14T07:51:24;13.63;;;7.47;;
64094;SDS011;50353;51.420;5.682;2023-03-14T07:53:49;4.75;;;2.28;;
64094;SDS011;50353;51.420;5.682;2023-03-14T07:56:14;6.13;;;2.63;;
64094;SDS011;50353;51.420;5.682;2023-03-14T07:58:40;5.15;;;2.17;;
64094;SDS011;50353;51.420;5.682;2023-03-14T08:01:05;3.30;;;1.48;;
64094;SDS011;50353;51.420;5.682;2023-03-14T08:03:30;1.92;;;0.88;;
64094;SDS011;50353;51.420;5.682;2023-03-14T08:05:56;1.42;;;0.90;;
64094;SDS011;50353;51.420;5.682;2023-03-14T08:08:21;1.95;;;1.08;;
64094;SDS011;50353;51.420;5.682;2023-03-14T08:10:46;2.50;;;1.20;;
64094;SDS011;50353;51.420;5.682;2023-03-14T08:13:12;1.00;;;0.80;;
64094;SDS011;50353;51.420;5.682;2023-03-14T08:15:37;3.00;;;1.00;;
64094;SDS011;50353;51.420;5.682;2023-03-14T08:18:03;2.15;;;1.10;;
64094;SDS011;50353;51.420;5.682;2023-03-14T08:20:29;1.53;;;0.80;;
64094;SDS011;50353;51.420;5.682;2023-03-14T08:22:55;3.38;;;1.00;;
64094;SDS011;50353;51.420;5.682;2023-03-14T08:25:22;1.20;;;0.70;;
64094;SDS011;50353;51.420;5.682;2023-03-14T08:27:48;2.45;;;1.10;;
64094;SDS011;50353;51.420;5.682;2023-03-14T08:30:14;3.83;;;1.10;;
64094;SDS011;50353;51.420;5.682;2023-03-14T08:32:41;2.28;;;1.25;;
64094;SDS011;50353;51.420;5.682;2023-03-14T08:35:06;2.65;;;1.13;;
64094;SDS011;50353;51.420;5.682;2023-03-14T08:37:32;2.55;;;1.40;;
64094;SDS011;50353;51.420;5.682;2023-03-14T08:39:58;3.67;;;1.65;;
64094;SDS011;50353;51.420;5.682;2023-03-14T08:42:24;8.75;;;3.90;;
64094;SDS011;50353;51.420;5.682;2023-03-14T08:44:52;6.90;;;3.65;;
64094;SDS011;50353;51.420;5.682;2023-03-14T08:47:18;16.35;;;9.88;;
64094;SDS011;50353;51.420;5.682;2023-03-14T08:49:44;3.80;;;1.48;;
64094;SDS011;50353;51.420;5.682;2023-03-14T08:52:09;1.92;;;1.20;;
64094;SDS011;50353;51.420;5.682;2023-03-14T08:54:34;3.20;;;1.02;;
64094;SDS011;50353;51.420;5.682;2023-03-14T08:57:00;2.45;;;1.10;;
64094;SDS011;50353;51.420;5.682;2023-03-14T08:59:25;1.33;;;1.13;;
64094;SDS011;50353;51.420;5.682;2023-03-14T09:01:51;1.30;;;0.93;;
64094;SDS011;50353;51.420;5.682;2023-03-14T09:04:16;3.03;;;1.40;;
64094;SDS011;50353;51.420;5.682;2023-03-14T09:06:42;3.22;;;1.30;;
64094;SDS011;50353;51.420;5.682;2023-03-14T09:09:07;2.95;;;0.98;;
64094;SDS011;50353;51.420;5.682;2023-03-14T09:11:33;3.75;;;1.35;;
64094;SDS011;50353;51.420;5.682;2023-03-14T09:13:58;5.50;;;2.05;;
64094;SDS011;50353;51.420;5.682;2023-03-14T09:16:23;3.00;;;1.63;;
64094;SDS011;50353;51.420;5.682;2023-03-14T09:18:49;3.80;;;1.33;;
64094;SDS011;50353;51.420;5.682;2023-03-14T09:21:15;4.90;;;1.90;;
64094;SDS011;50353;51.420;5.682;2023-03-14T09:23:40;3.00;;;1.77;;
64094;SDS011;50353;51.420;5.682;2023-03-14T09:26:06;5.15;;;1.73;;
64094;SDS011;50353;51.420;5.682;2023-03-14T09:28:31;2.13;;;1.30;;
64094;SDS011;50353;51.420;5.682;2023-03-14T09:30:57;4.43;;;1.35;;
64094;SDS011;50353;51.420;5.682;2023-03-14T09:33:22;7.28;;;2.00;;
64094;SDS011;50353;51.420;5.682;2023-03-14T09:35:48;7.35;;;2.10;;
64094;SDS011;50353;51.420;5.682;2023-03-14T09:38:13;5.28;;;1.60;;
64094;SDS011;50353;51.420;5.682;2023-03-14T09:40:38;2.70;;;1.42;;
64094;SDS011;50353;51.420;5.682;2023-03-14T09:43:04;5.70;;;1.67;;
64094;SDS011;50353;51.420;5.682;2023-03-14T09:45:34;3.10;;;1.50;;
64094;SDS011;50353;51.420;5.682;2023-03-14T09:48:02;4.47;;;1.48;;
64094;SDS011;50353;51.420;5.682;2023-03-14T09:50:39;7.00;;;1.90;;
64094;SDS011;50353;51.420;5.682;2023-03-14T09:53:14;3.40;;;1.25;;
64094;SDS011;50353;51.420;5.682;2023-03-14T09:55:42;3.72;;;1.77;;
64094;SDS011;50353;51.420;5.682;2023-03-14T10:00:36;1.77;;;1.25;;
64094;SDS011;50353;51.420;5.682;2023-03-14T10:05:36;1.75;;;0.75;;
64094;SDS011;50353;51.420;5.682;2023-03-14T10:08:02;1.52;;;0.93;;
64094;SDS011;50353;51.420;5.682;2023-03-14T10:10:27;4.95;;;0.90;;
64094;SDS011;50353;51.420;5.682;2023-03-14T10:12:57;1.75;;;0.68;;
64094;SDS011;50353;51.420;5.682;2023-03-14T10:15:24;1.25;;;0.70;;
64094;SDS011;50353;51.420;5.682;2023-03-14T10:17:58;3.10;;;0.90;;
64094;SDS011;50353;51.420;5.682;2023-03-14T10:20:30;3.00;;;0.80;;
64094;SDS011;50353;51.420;5.682;2023-03-14T10:23:17;2.95;;;0.80;;
64094;SDS011;50353;51.420;5.682;2023-03-14T10:26:05;3.30;;;1.00;;
64094;SDS011;50353;51.420;5.682;2023-03-14T10:28:51;1.85;;;0.75;;
64094;SDS011;50353;51.420;5.682;2023-03-14T10:31:18;4.63;;;1.00;;
64094;SDS011;50353;51.420;5.682;2023-03-14T10:33:59;5.22;;;1.23;;
64094;SDS011;50353;51.420;5.682;2023-03-14T10:36:27;2.20;;;1.02;;
64094;SDS011;50353;51.420;5.682;2023-03-14T10:38:58;5.53;;;1.33;;
64094;SDS011;50353;51.420;5.682;2023-03-14T10:41:47;4.45;;;1.17;;
64094;SDS011;50353;51.420;5.682;2023-03-14T10:44:15;7.03;;;1.40;;
64094;SDS011;50353;51.420;5.682;2023-03-14T10:46:46;5.95;;;1.55;;
64094;SDS011;50353;51.420;5.682;2023-03-14T10:49:27;7.63;;;1.80;;
64094;SDS011;50353;51.420;5.682;2023-03-14T10:52:15;8.57;;;1.67;;
64094;SDS011;50353;51.420;5.682;2023-03-14T10:55:10;9.82;;;2.08;;
64094;SDS011;50353;51.420;5.682;2023-03-14T10:57:40;8.32;;;1.83;;
64094;SDS011;50353;51.420;5.682;2023-03-14T11:00:16;9.73;;;2.20;;
64094;SDS011;50353;51.420;5.682;2023-03-14T11:05:29;9.10;;;2.75;;
64094;SDS011;50353;51.420;5.682;2023-03-14T11:08:06;11.88;;;2.42;;
64094;SDS011;50353;51.420;5.682;2023-03-14T11:11:01;12.07;;;2.10;;
64094;SDS011;50353;51.420;5.682;2023-03-14T11:13:56;9.48;;;2.50;;
64094;SDS011;50353;51.420;5.682;2023-03-14T11:19:47;17.77;;;2.47;;
64094;SDS011;50353;51.420;5.682;2023-03-14T11:22:30;16.52;;;2.97;;
64094;SDS011;50353;51.420;5.682;2023-03-14T11:25:06;13.35;;;2.42;;
64094;SDS011;50353;51.420;5.682;2023-03-14T11:27:48;10.20;;;2.55;;
64094;SDS011;50353;51.420;5.682;2023-03-14T11:33:16;17.17;;;3.05;;
64094;SDS011;50353;51.420;5.682;2023-03-14T11:35:48;22.17;;;3.38;;
64094;SDS011;50353;51.420;5.682;2023-03-14T11:41:14;16.33;;;2.95;;
64094;SDS011;50353;51.420;5.682;2023-03-14T11:43:44;16.27;;;2.67;;
64094;SDS011;50353;51.420;5.682;2023-03-14T11:46:15;20.10;;;2.80;;
64094;SDS011;50353;51.420;5.682;2023-03-14T11:51:28;9.93;;;2.28;;
64094;SDS011;50353;51.420;5.682;2023-03-14T12:00:12;17.50;;;2.78;;
64094;SDS011;50353;51.420;5.682;2023-03-14T12:02:05;20.02;;;2.75;;
64094;SDS011;50353;51.420;5.682;2023-03-14T12:04:42;14.98;;;3.10;;
64094;SDS011;50353;51.420;5.682;2023-03-14T12:07:26;20.48;;;4.10;;
64094;SDS011;50353;51.420;5.682;2023-03-14T12:12:27;29.17;;;3.70;;
64094;SDS011;50353;51.420;5.682;2023-03-14T12:17:40;30.55;;;4.00;;
64094;SDS011;50353;51.420;5.682;2023-03-14T12:20:29;21.45;;;5.00;;
64094;SDS011;50353;51.420;5.682;2023-03-14T12:22:54;14.75;;;3.25;;
64094;SDS011;50353;51.420;5.682;2023-03-14T12:25:26;17.00;;;3.35;;
64094;SDS011;50353;51.420;5.682;2023-03-14T12:35:49;15.23;;;3.63;;
64094;SDS011;50353;51.420;5.682;2023-03-14T12:43:25;16.05;;;3.35;;
64094;SDS011;50353;51.420;5.682;2023-03-14T12:48:39;11.45;;;2.50;;
64094;SDS011;50353;51.420;5.682;2023-03-14T12:51:11;15.45;;;3.28;;
64094;SDS011;50353;51.420;5.682;2023-03-14T13:01:44;23.10;;;3.57;;
64094;SDS011;50353;51.420;5.682;2023-03-14T13:04:13;16.80;;;3.42;;
64094;SDS011;50353;51.420;5.682;2023-03-14T13:06:54;29.10;;;4.35;;
64094;SDS011;50353;51.420;5.682;2023-03-14T13:12:02;20.17;;;3.78;;
64094;SDS011;50353;51.420;5.682;2023-03-14T13:14:33;23.05;;;4.43;;
64094;SDS011;50353;51.420;5.682;2023-03-14T13:17:00;21.13;;;3.90;;
64094;SDS011;50353;51.420;5.682;2023-03-14T13:19:26;18.13;;;3.25;;
64094;SDS011;50353;51.420;5.682;2023-03-14T13:22:15;20.75;;;4.07;;
64094;SDS011;50353;51.420;5.682;2023-03-14T13:24:44;14.38;;;2.85;;
64094;SDS011;50353;51.420;5.682;2023-03-14T13:27:19;22.27;;;3.88;;
64094;SDS011;50353;51.420;5.682;2023-03-14T13:29:48;20.43;;;3.23;;
64094;SDS011;50353;51.420;5.682;2023-03-14T13:32:20;21.58;;;3.75;;
64094;SDS011;50353;51.420;5.682;2023-03-14T13:34:47;17.98;;;2.72;;
64094;SDS011;50353;51.420;5.682;2023-03-14T13:37:21;21.70;;;4.60;;
64094;SDS011;50353;51.420;5.682;2023-03-14T13:39:51;21.98;;;3.75;;
64094;SDS011;50353;51.420;5.682;2023-03-14T13:42:18;19.00;;;3.40;;
64094;SDS011;50353;51.420;5.682;2023-03-14T13:44:43;15.40;;;2.85;;
64094;SDS011;50353;51.420;5.682;2023-03-14T13:47:14;17.00;;;3.45;;
64094;SDS011;50353;51.420;5.682;2023-03-14T13:49:41;18.58;;;3.00;;
64094;SDS011;50353;51.420;5.682;2023-03-14T13:52:24;15.55;;;3.10;;
64094;SDS011;50353;51.420;5.682;2023-03-14T13:54:54;33.33;;;3.45;;
64094;SDS011;50353;51.420;5.682;2023-03-14T13:57:22;10.82;;;2.60;;
64094;SDS011;50353;51.420;5.682;2023-03-14T13:59:58;12.10;;;2.90;;
64094;SDS011;50353;51.420;5.682;2023-03-14T14:02:25;13.00;;;2.67;;
64094;SDS011;50353;51.420;5.682;2023-03-14T14:04:52;9.90;;;2.38;;
64094;SDS011;50353;51.420;5.682;2023-03-14T14:07:17;14.55;;;2.33;;
64094;SDS011;50353;51.420;5.682;2023-03-14T14:09:44;12.75;;;2.55;;
64094;SDS011;50353;51.420;5.682;2023-03-14T14:12:21;10.55;;;2.90;;
64094;SDS011;50353;51.420;5.682;2023-03-14T14:17:32;11.45;;;2.42;;
64094;SDS011;50353;51.420;5.682;2023-03-14T14:20:02;10.27;;;2.60;;
64094;SDS011;50353;51.420;5.682;2023-03-14T14:22:30;10.85;;;2.35;;
64094;SDS011;50353;51.420;5.682;2023-03-14T14:24:55;7.97;;;2.13;;
64094;SDS011;50353;51.420;5.682;2023-03-14T14:27:27;9.30;;;2.30;;
64094;SDS011;50353;51.420;5.682;2023-03-14T14:30:01;11.07;;;2.35;;
64094;SDS011;50353;51.420;5.682;2023-03-14T14:32:37;8.60;;;1.90;;
64094;SDS011;50353;51.420;5.682;2023-03-14T14:35:03;13.40;;;2.78;;
64094;SDS011;50353;51.420;5.682;2023-03-14T14:37:31;12.80;;;2.45;;
64094;SDS011;50353;51.420;5.682;2023-03-14T14:39:59;9.50;;;2.50;;
64094;SDS011;50353;51.420;5.682;2023-03-14T14:42:32;11.80;;;2.40;;
64094;SDS011;50353;51.420;5.682;2023-03-14T14:44:57;10.10;;;2.70;;
64094;SDS011;50353;51.420;5.682;2023-03-14T14:47:25;13.82;;;2.75;;
64094;SDS011;50353;51.420;5.682;2023-03-14T14:49:53;11.88;;;2.50;;
64094;SDS011;50353;51.420;5.682;2023-03-14T14:52:20;9.60;;;2.40;;
64094;SDS011;50353;51.420;5.682;2023-03-14T14:54:58;12.13;;;2.30;;
64094;SDS011;50353;51.420;5.682;2023-03-14T14:57:25;20.65;;;8.15;;
64094;SDS011;50353;51.420;5.682;2023-03-14T15:00:08;17.52;;;2.30;;
64094;SDS011;50353;51.420;5.682;2023-03-14T15:02:45;10.15;;;2.50;;
64094;SDS011;50353;51.420;5.682;2023-03-14T15:05:19;10.00;;;2.30;;
64094;SDS011;50353;51.420;5.682;2023-03-14T15:07:46;12.25;;;2.55;;
64094;SDS011;50353;51.420;5.682;2023-03-14T15:10:12;8.10;;;2.17;;
64094;SDS011;50353;51.420;5.682;2023-03-14T15:12:39;16.30;;;3.00;;
64094;SDS011;50353;51.420;5.682;2023-03-14T15:15:05;10.45;;;2.35;;
64094;SDS011;50353;51.420;5.682;2023-03-14T15:17:31;14.65;;;2.95;;
64094;SDS011;50353;51.420;5.682;2023-03-14T15:19:56;52.72;;;24.27;;
64094;SDS011;50353;51.420;5.682;2023-03-14T15:22:23;11.88;;;3.35;;
64094;SDS011;50353;51.420;5.682;2023-03-14T15:24:48;10.07;;;2.35;;
64094;SDS011;50353;51.420;5.682;2023-03-14T15:27:14;15.75;;;2.28;;
64094;SDS011;50353;51.420;5.682;2023-03-14T15:29:42;7.97;;;2.03;;
64094;SDS011;50353;51.420;5.682;2023-03-14T15:32:16;14.35;;;2.30;;
64094;SDS011;50353;51.420;5.682;2023-03-14T15:34:43;8.02;;;2.33;;
64094;SDS011;50353;51.420;5.682;2023-03-14T15:37:10;9.50;;;2.00;;
64094;SDS011;50353;51.420;5.682;2023-03-14T15:39:38;17.13;;;2.60;;
64094;SDS011;50353;51.420;5.682;2023-03-14T15:42:04;14.23;;;3.33;;
64094;SDS011;50353;51.420;5.682;2023-03-14T15:44:29;10.07;;;2.15;;
64094;SDS011;50353;51.420;5.682;2023-03-14T15:46:55;6.15;;;2.17;;
64094;SDS011;50353;51.420;5.682;2023-03-14T15:49:20;9.45;;;2.10;;
64094;SDS011;50353;51.420;5.682;2023-03-14T15:51:45;10.95;;;2.20;;
64094;SDS011;50353;51.420;5.682;2023-03-14T15:54:11;10.10;;;2.10;;
64094;SDS011;50353;51.420;5.682;2023-03-14T15:56:36;13.80;;;2.97;;